createdAt,value
2023-04-07T00:00:37.538Z,5.23
2023-04-07T00:03:09.888Z,5.10
2023-04-07T00:05:37.381Z,5.40
2023-04-07T00:08:04.557Z,5.77
2023-04-07T00:10:33.781Z,6.30
2023-04-07T00:13:01.022Z,6.30
2023-04-07T00:15:35.330Z,5.63
2023-04-07T00:18:04.661Z,5.50
2023-04-07T00:20:33.916Z,6.43
2023-04-07T00:23:01.123Z,7.00
2023-04-07T00:25:30.566Z,6.70
2023-04-07T00:27:57.697Z,6.53
2023-04-07T00:30:24.964Z,6.57
2023-04-07T00:32:52.265Z,6.73
2023-04-07T00:35:19.472Z,6.13
2023-04-07T00:37:48.766Z,6.83
2023-04-07T00:40:20.113Z,6.60
2023-04-07T00:42:47.270Z,6.83
2023-04-07T00:45:19.352Z,6.73
2023-04-07T00:47:46.539Z,7.00
2023-04-07T00:50:16.264Z,6.60
2023-04-07T00:52:46.344Z,7.27
2023-04-07T00:55:15.971Z,6.83
2023-04-07T00:57:46.877Z,7.03
2023-04-07T01:00:16.759Z,7.00
2023-04-07T01:02:56.205Z,7.47
2023-04-07T01:05:45.464Z,6.78
2023-04-07T01:08:24.922Z,7.10
2023-04-07T01:10:57.320Z,7.80
2023-04-07T01:13:38.685Z,7.83
2023-04-07T01:16:12.587Z,7.40
2023-04-07T01:18:44.243Z,8.60
2023-04-07T01:21:15.568Z,8.57
2023-04-07T01:24:01.656Z,9.20
2023-04-07T01:26:33.503Z,9.27
2023-04-07T01:29:11.319Z,8.87
2023-04-07T01:31:41.829Z,9.13
2023-04-07T01:34:13.392Z,9.60
2023-04-07T01:36:41.762Z,9.47
2023-04-07T01:39:12.206Z,10.50
2023-04-07T01:41:41.276Z,10.20
2023-04-07T01:44:13.598Z,10.37
2023-04-07T01:46:45.617Z,10.90
2023-04-07T01:49:16.033Z,10.00
2023-04-07T01:51:50.542Z,10.30
2023-04-07T01:54:18.876Z,11.63
2023-04-07T01:56:48.175Z,10.80
2023-04-07T01:59:20.056Z,10.47
2023-04-07T02:01:47.962Z,10.43
2023-04-07T02:04:39.237Z,10.13
2023-04-07T02:07:19.671Z,9.77
2023-04-07T02:09:51.045Z,10.83
2023-04-07T02:12:18.313Z,9.47
2023-04-07T02:14:48.148Z,9.60
2023-04-07T02:17:16.560Z,10.10
2023-04-07T02:19:50.080Z,10.70
2023-04-07T02:22:19.960Z,10.90
2023-04-07T02:24:47.254Z,9.80
2023-04-07T02:27:17.577Z,10.43
2023-04-07T02:29:44.698Z,9.93
2023-04-07T02:32:17.936Z,10.47
2023-04-07T02:34:46.224Z,10.30
2023-04-07T02:37:16.058Z,10.50
2023-04-07T02:39:43.204Z,10.17
2023-04-07T02:42:12.839Z,10.33
2023-04-07T02:44:39.987Z,10.37
2023-04-07T02:47:11.612Z,9.90
2023-04-07T02:49:43.359Z,10.97
2023-04-07T02:52:10.628Z,10.03
2023-04-07T02:54:37.762Z,10.47
2023-04-07T02:57:04.898Z,10.07
2023-04-07T02:59:34.625Z,9.93
2023-04-07T03:02:01.861Z,10.40
2023-04-07T03:04:31.902Z,10.33
2023-04-07T03:07:01.668Z,9.60
2023-04-07T03:09:28.802Z,9.73
2023-04-07T03:11:58.442Z,9.90
2023-04-07T03:14:28.096Z,9.17
2023-04-07T03:16:56.553Z,10.40
2023-04-07T03:19:28.900Z,10.00
2023-04-07T03:21:56.277Z,10.57
2023-04-07T03:24:26.096Z,9.90
2023-04-07T03:26:56.145Z,10.37
2023-04-07T03:29:27.641Z,9.50
2023-04-07T03:31:56.998Z,9.87
2023-04-07T03:34:24.228Z,9.83
2023-04-07T03:36:56.153Z,10.87
2023-04-07T03:39:23.296Z,10.50
2023-04-07T03:41:51.741Z,10.53
2023-04-07T03:44:19.116Z,10.63
2023-04-07T03:46:50.545Z,10.40
2023-04-07T03:49:20.277Z,10.47
2023-04-07T03:51:49.844Z,10.33
2023-04-07T03:54:19.235Z,11.00
2023-04-07T03:56:48.489Z,10.03
2023-04-07T03:59:18.303Z,9.77
2023-04-07T04:01:47.660Z,10.20
2023-04-07T04:04:14.894Z,11.00
2023-04-07T04:06:44.498Z,9.93
2023-04-07T04:09:11.625Z,10.50
2023-04-07T04:11:38.755Z,10.53
2023-04-07T04:14:06.554Z,10.17
2023-04-07T04:16:35.942Z,10.60
2023-04-07T04:19:07.998Z,10.60
2023-04-07T04:21:35.202Z,11.40
2023-04-07T04:24:04.704Z,10.83
2023-04-07T04:26:31.997Z,11.63
2023-04-07T04:29:03.814Z,11.43
2023-04-07T04:31:33.742Z,10.70
2023-04-07T04:34:05.426Z,12.73
2023-04-07T04:36:32.791Z,11.87
2023-04-07T04:38:59.947Z,11.77
2023-04-07T04:41:29.579Z,11.93
2023-04-07T04:43:56.843Z,13.07
2023-04-07T04:46:25.714Z,11.53
2023-04-07T04:48:55.415Z,11.40
2023-04-07T04:51:25.053Z,11.80
2023-04-07T04:53:57.117Z,12.60
2023-04-07T04:56:24.428Z,13.83
2023-04-07T04:58:53.876Z,13.23
2023-04-07T05:01:21.115Z,12.60
2023-04-07T05:03:50.710Z,12.97
2023-04-07T05:06:18.094Z,13.17
2023-04-07T05:08:45.479Z,13.47
2023-04-07T05:11:19.131Z,13.47
2023-04-07T05:13:48.425Z,13.63
2023-04-07T05:16:15.658Z,13.77
2023-04-07T05:18:45.156Z,14.63
2023-04-07T05:21:12.256Z,15.23
2023-04-07T05:23:41.818Z,14.40
2023-04-07T05:26:09.002Z,14.60
2023-04-07T05:28:36.263Z,15.00
2023-04-07T05:31:07.803Z,15.47
2023-04-07T05:33:35.420Z,14.30
2023-04-07T05:36:07.562Z,14.93
2023-04-07T05:38:36.830Z,14.80
2023-04-07T05:41:04.038Z,14.73
2023-04-07T05:43:31.146Z,15.13
2023-04-07T05:45:58.282Z,15.70
2023-04-07T05:48:25.533Z,15.23
2023-04-07T05:50:52.703Z,14.63
2023-04-07T05:53:22.549Z,14.23
2023-04-07T05:55:49.684Z,12.80
2023-04-07T05:58:16.962Z,13.93
2023-04-07T06:00:46.613Z,13.43
2023-04-07T06:03:13.826Z,14.03
2023-04-07T06:05:46.909Z,14.13
2023-04-07T06:08:21.060Z,13.30
2023-04-07T06:10:48.382Z,13.33
2023-04-07T06:13:20.523Z,14.30
2023-04-07T06:15:52.411Z,13.60
2023-04-07T06:18:21.778Z,13.27
2023-04-07T06:20:48.930Z,13.37
2023-04-07T06:23:18.497Z,13.47
2023-04-07T06:25:51.806Z,15.00
2023-04-07T06:28:19.456Z,13.73
2023-04-07T06:30:47.302Z,13.20
2023-04-07T06:33:14.458Z,14.17
2023-04-07T06:35:44.307Z,14.13
2023-04-07T06:38:16.229Z,12.63
2023-04-07T06:40:43.335Z,13.37
2023-04-07T06:43:10.522Z,13.40
2023-04-07T06:45:37.830Z,15.33
2023-04-07T06:48:07.558Z,13.87
2023-04-07T06:50:39.475Z,12.80
2023-04-07T06:53:11.328Z,14.50
2023-04-07T06:55:40.635Z,14.13
2023-04-07T06:58:07.890Z,14.20
2023-04-07T07:00:36.080Z,13.30
2023-04-07T07:03:07.786Z,13.43
2023-04-07T07:05:39.447Z,15.00
2023-04-07T07:08:11.236Z,14.00
2023-04-07T07:10:41.189Z,14.13
2023-04-07T07:13:08.289Z,13.67
2023-04-07T07:15:37.856Z,12.73
2023-04-07T07:18:07.193Z,14.43
2023-04-07T07:20:39.200Z,14.03
2023-04-07T07:23:08.934Z,13.00
2023-04-07T07:25:36.659Z,13.83
2023-04-07T07:28:06.257Z,13.50
2023-04-07T07:30:35.574Z,13.13
2023-04-07T07:33:05.167Z,16.37
2023-04-07T07:35:34.464Z,15.33
2023-04-07T07:38:06.781Z,15.67
2023-04-07T07:40:36.375Z,15.80
2023-04-07T07:43:08.254Z,16.67
2023-04-07T07:45:35.400Z,16.13
2023-04-07T07:48:02.582Z,15.90
2023-04-07T07:50:30.443Z,15.13
2023-04-07T07:52:57.645Z,16.03
2023-04-07T07:55:31.250Z,15.13
2023-04-07T07:57:58.442Z,16.50
2023-04-07T08:00:25.614Z,16.37
2023-04-07T08:02:53.217Z,16.10
2023-04-07T08:05:20.636Z,15.53
2023-04-07T08:07:54.692Z,15.77
2023-04-07T08:10:26.436Z,15.20
2023-04-07T08:12:55.927Z,15.50
2023-04-07T08:15:25.608Z,14.53
2023-04-07T08:17:54.686Z,14.97
2023-04-07T08:20:26.686Z,14.47
2023-04-07T08:22:53.998Z,15.03
2023-04-07T08:25:23.505Z,12.27
2023-04-07T08:27:50.947Z,12.67
2023-04-07T08:30:18.162Z,13.40
2023-04-07T08:32:45.794Z,11.57
2023-04-07T08:35:13.055Z,11.07
2023-04-07T08:37:41.233Z,9.30
2023-04-07T08:40:11.860Z,9.90
2023-04-07T08:42:49.165Z,10.63
2023-04-07T08:45:19.063Z,10.80
2023-04-07T08:47:59.092Z,10.97
2023-04-07T08:50:28.261Z,11.13
2023-04-07T08:53:03.399Z,12.27
2023-04-07T08:55:31.580Z,12.00
2023-04-07T08:58:02.217Z,10.63
2023-04-07T09:00:32.687Z,11.60
2023-04-07T09:03:03.667Z,10.20
2023-04-07T09:05:33.995Z,9.33
2023-04-07T09:08:04.360Z,8.13
2023-04-07T09:10:39.240Z,9.47
2023-04-07T09:13:06.719Z,9.60
2023-04-07T09:15:34.613Z,7.93
2023-04-07T09:18:04.976Z,7.43
2023-04-07T09:20:59.299Z,6.27
2023-04-07T09:23:34.835Z,6.00
2023-04-07T09:26:23.115Z,5.37
2023-04-07T09:29:00.097Z,4.83
2023-04-07T09:31:52.083Z,4.10
2023-04-07T09:34:29.902Z,4.30
2023-04-07T09:37:05.634Z,4.60
2023-04-07T09:39:35.533Z,4.50
2023-04-07T09:42:07.896Z,3.73
2023-04-07T09:44:43.231Z,3.50
2023-04-07T09:47:11.167Z,3.83
2023-04-07T09:49:55.213Z,3.90
2023-04-07T09:52:49.048Z,3.73
2023-04-07T09:55:17.435Z,3.80
2023-04-07T09:57:45.522Z,3.40
2023-04-07T10:00:13.157Z,3.57
2023-04-07T10:02:43.123Z,3.40
2023-04-07T10:05:13.894Z,3.10
2023-04-07T10:07:42.731Z,2.77
2023-04-07T10:10:12.960Z,3.10
2023-04-07T10:12:43.757Z,3.97
2023-04-07T10:15:15.944Z,3.43
2023-04-07T10:17:49.936Z,3.57
2023-04-07T10:20:23.198Z,3.60
2023-04-07T10:22:55.563Z,4.07
2023-04-07T10:25:28.675Z,3.07
2023-04-07T10:28:09.691Z,3.13
2023-04-07T10:30:37.097Z,3.23
2023-04-07T10:33:05.221Z,2.97
2023-04-07T10:36:08.642Z,3.17
2023-04-07T10:38:38.341Z,2.43
2023-04-07T10:41:34.747Z,2.93
2023-04-07T10:44:04.524Z,3.47
2023-04-07T10:46:47.285Z,3.50
2023-04-07T10:49:19.055Z,3.07
2023-04-07T10:52:12.143Z,2.73
2023-04-07T10:54:42.946Z,2.60
2023-04-07T10:57:14.161Z,3.17
2023-04-07T11:00:05.602Z,2.50
2023-04-07T11:02:33.612Z,2.70
2023-04-07T11:05:03.440Z,3.17
2023-04-07T11:07:55.381Z,3.20
2023-04-07T11:10:27.863Z,3.50
2023-04-07T11:13:10.607Z,2.67
2023-04-07T11:15:40.903Z,2.27
2023-04-07T11:18:14.405Z,2.50
2023-04-07T11:20:45.873Z,2.00
2023-04-07T11:23:16.759Z,2.30
2023-04-07T11:25:48.890Z,2.23
2023-04-07T11:28:16.798Z,2.23
2023-04-07T11:30:54.164Z,2.07
2023-04-07T11:33:27.281Z,2.43
2023-04-07T11:36:00.045Z,1.73
2023-04-07T11:38:38.052Z,2.47
2023-04-07T11:41:15.988Z,2.10
2023-04-07T11:43:49.362Z,2.37
2023-04-07T11:46:20.068Z,2.33
2023-04-07T11:48:49.510Z,2.27
2023-04-07T11:51:23.967Z,1.53
2023-04-07T11:53:59.995Z,1.80
2023-04-07T11:56:28.155Z,2.07
2023-04-07T11:59:02.673Z,1.83
2023-04-07T12:01:45.040Z,1.93
2023-04-07T12:04:18.757Z,1.50
2023-04-07T12:06:49.052Z,1.70
2023-04-07T12:09:48.742Z,1.50
2023-04-07T12:12:29.273Z,1.60
2023-04-07T12:14:57.367Z,1.23
2023-04-07T12:17:28.130Z,2.20
2023-04-07T12:19:58.296Z,2.40
2023-04-07T12:22:25.890Z,2.60
2023-04-07T12:24:52.977Z,2.93
2023-04-07T12:27:36.046Z,2.67
2023-04-07T12:30:09.944Z,2.50
2023-04-07T12:32:39.356Z,3.23
2023-04-07T12:35:06.946Z,3.50
2023-04-07T12:37:34.156Z,3.00
2023-04-07T12:40:01.342Z,2.80
2023-04-07T12:42:28.774Z,3.17
2023-04-07T12:44:56.834Z,2.83
2023-04-07T12:47:26.363Z,2.93
2023-04-07T12:49:53.492Z,2.93
2023-04-07T12:52:20.982Z,2.60
2023-04-07T12:54:48.124Z,3.13
2023-04-07T12:57:16.184Z,2.90
2023-04-07T12:59:43.426Z,3.17
2023-04-07T13:02:11.925Z,2.83
2023-04-07T13:04:43.570Z,3.13
2023-04-07T13:07:12.871Z,2.67
2023-04-07T13:09:43.452Z,2.27
2023-04-07T13:12:15.584Z,2.50
2023-04-07T13:14:59.159Z,2.23
2023-04-07T13:17:32.113Z,2.37
2023-04-07T13:19:59.293Z,2.10
2023-04-07T13:22:29.276Z,2.20
2023-04-07T13:25:00.223Z,1.80
2023-04-07T13:27:30.577Z,1.70
2023-04-07T13:30:00.266Z,1.70
2023-04-07T13:32:27.784Z,1.33
2023-04-07T13:34:54.946Z,2.47
2023-04-07T13:37:24.517Z,2.20
2023-04-07T13:39:57.583Z,1.80
2023-04-07T13:42:27.275Z,1.43
2023-04-07T13:44:54.665Z,1.60
2023-04-07T13:47:22.610Z,1.50
2023-04-07T13:49:54.859Z,2.03
2023-04-07T13:52:22.026Z,1.73
2023-04-07T13:54:54.045Z,1.97
2023-04-07T13:57:23.487Z,1.90
2023-04-07T13:59:54.335Z,1.60
2023-04-07T14:02:21.888Z,1.53
2023-04-07T14:04:49.266Z,2.30
2023-04-07T14:07:16.813Z,2.37
2023-04-07T14:09:48.188Z,1.60
2023-04-07T14:12:18.085Z,1.97
2023-04-07T14:14:45.313Z,2.00
2023-04-07T14:17:17.099Z,1.83
2023-04-07T14:19:51.115Z,1.93
2023-04-07T14:22:20.928Z,2.17
2023-04-07T14:24:48.080Z,1.90
2023-04-07T14:27:21.011Z,1.77
2023-04-07T14:29:49.271Z,2.23
2023-04-07T14:32:18.719Z,1.90
2023-04-07T14:34:52.968Z,2.20
2023-04-07T14:37:26.192Z,1.47
2023-04-07T14:40:02.552Z,1.97
2023-04-07T14:42:36.992Z,1.50
2023-04-07T14:45:08.985Z,1.40
2023-04-07T14:47:36.149Z,1.10
2023-04-07T14:50:03.864Z,1.17
2023-04-07T14:52:30.988Z,1.20
2023-04-07T14:55:00.680Z,0.90
2023-04-07T14:57:29.725Z,0.90
2023-04-07T14:59:59.316Z,0.90
2023-04-07T15:02:29.549Z,0.90
2023-04-07T15:04:59.482Z,1.03
2023-04-07T15:07:29.240Z,0.90
2023-04-07T15:09:59.792Z,1.13
2023-04-07T15:12:29.786Z,0.80
2023-04-07T15:15:01.696Z,0.70
2023-04-07T15:17:42.943Z,0.90
2023-04-07T15:20:13.773Z,1.60
2023-04-07T15:22:41.055Z,1.60
2023-04-07T15:25:08.725Z,2.00
2023-04-07T15:27:38.439Z,1.50
2023-04-07T15:30:06.159Z,1.17
2023-04-07T15:32:35.553Z,1.30
2023-04-07T15:35:05.522Z,1.30
2023-04-07T15:37:32.665Z,1.57
2023-04-07T15:40:01.914Z,1.60
2023-04-07T15:42:29.164Z,1.50
2023-04-07T15:44:56.344Z,1.80
2023-04-07T15:47:23.556Z,1.87
2023-04-07T15:49:52.939Z,1.90
2023-04-07T15:52:20.126Z,1.90
2023-04-07T15:54:47.241Z,2.00
2023-04-07T15:57:21.213Z,1.00
2023-04-07T15:59:52.135Z,1.07
2023-04-07T16:02:19.409Z,1.20
2023-04-07T16:04:47.620Z,1.20
2023-04-07T16:07:17.032Z,1.20
2023-04-07T16:09:44.139Z,1.20
2023-04-07T16:12:13.390Z,1.70
2023-04-07T16:14:42.637Z,1.47
2023-04-07T16:17:12.444Z,1.40
2023-04-07T16:19:43.956Z,1.40
2023-04-07T16:22:13.644Z,1.13
2023-04-07T16:24:43.223Z,1.40
2023-04-07T16:27:11.196Z,1.50
2023-04-07T16:29:38.407Z,1.67
2023-04-07T16:32:08.137Z,1.20
2023-04-07T16:34:37.891Z,1.33
2023-04-07T16:37:05.022Z,1.30
2023-04-07T16:39:34.256Z,1.70
2023-04-07T16:42:03.718Z,1.40
2023-04-07T16:44:32.831Z,1.60
2023-04-07T16:47:03.409Z,1.57
2023-04-07T16:49:30.874Z,1.43
2023-04-07T16:52:01.003Z,1.40
2023-04-07T16:54:28.210Z,1.77
2023-04-07T16:57:00.062Z,1.83
2023-04-07T16:59:27.264Z,2.17
2023-04-07T17:01:56.707Z,1.87
2023-04-07T17:04:26.317Z,1.93
2023-04-07T17:06:58.194Z,1.97
2023-04-07T17:09:28.467Z,1.87
2023-04-07T17:11:57.912Z,2.10
2023-04-07T17:14:25.220Z,2.00
2023-04-07T17:16:57.240Z,1.93
2023-04-07T17:19:27.230Z,1.83
2023-04-07T17:21:56.667Z,1.97
2023-04-07T17:24:26.391Z,2.00
2023-04-07T17:26:58.104Z,1.60
2023-04-07T17:29:29.251Z,1.73
2023-04-07T17:31:58.851Z,2.20
2023-04-07T17:34:26.112Z,1.87
2023-04-07T17:36:55.595Z,1.50
2023-04-07T17:39:27.251Z,1.80
2023-04-07T17:41:54.424Z,1.80
2023-04-07T17:44:23.830Z,1.47
2023-04-07T17:46:51.052Z,2.33
2023-04-07T17:49:21.380Z,2.27
2023-04-07T17:51:48.521Z,1.93
2023-04-07T17:54:16.156Z,1.63
2023-04-07T17:56:46.158Z,1.70
2023-04-07T17:59:13.204Z,1.90
2023-04-07T18:01:40.429Z,1.50
2023-04-07T18:04:07.728Z,1.97
2023-04-07T18:06:35.214Z,1.73
2023-04-07T18:09:04.903Z,1.80
2023-04-07T18:11:32.767Z,1.80
2023-04-07T18:14:00.122Z,1.90
2023-04-07T18:16:29.908Z,2.10
2023-04-07T18:18:57.598Z,2.00
2023-04-07T18:21:29.440Z,1.40
2023-04-07T18:23:56.900Z,2.13
2023-04-07T18:26:24.272Z,1.87
2023-04-07T18:28:53.933Z,2.00
2023-04-07T18:31:21.146Z,1.90
2023-04-07T18:33:52.717Z,2.00
2023-04-07T18:36:22.132Z,1.73
2023-04-07T18:38:49.305Z,1.73
2023-04-07T18:41:16.522Z,2.20
2023-04-07T18:43:46.002Z,1.80
2023-04-07T18:46:13.464Z,2.20
2023-04-07T18:48:43.990Z,1.90
2023-04-07T18:51:11.809Z,1.70
2023-04-07T18:53:39.017Z,2.20
2023-04-07T18:56:08.507Z,2.13
2023-04-07T18:58:43.885Z,1.90
2023-04-07T19:01:14.306Z,1.63
2023-04-07T19:03:43.924Z,2.30
2023-04-07T19:06:17.089Z,2.27
2023-04-07T19:08:44.322Z,2.03
2023-04-07T19:11:11.912Z,2.47
2023-04-07T19:13:39.227Z,3.10
2023-04-07T19:16:07.669Z,2.20
2023-04-07T19:18:34.945Z,2.93
2023-04-07T19:21:05.136Z,2.50
2023-04-07T19:23:32.535Z,2.23
2023-04-07T19:26:00.951Z,2.37
2023-04-07T19:28:28.128Z,2.40
2023-04-07T19:30:56.004Z,2.23
2023-04-07T19:33:25.855Z,2.40
2023-04-07T19:35:53.053Z,2.30
2023-04-07T19:38:20.399Z,2.70
2023-04-07T19:40:47.644Z,2.40
2023-04-07T19:43:16.482Z,2.30
2023-04-07T19:45:43.704Z,2.50
2023-04-07T19:48:12.929Z,2.20
2023-04-07T19:50:49.556Z,2.10
2023-04-07T19:53:26.094Z,2.30
2023-04-07T19:55:58.558Z,2.00
2023-04-07T19:58:25.870Z,2.17
2023-04-07T20:00:58.092Z,3.10
2023-04-07T20:03:27.987Z,2.20
2023-04-07T20:06:00.051Z,2.57
2023-04-07T20:08:27.273Z,2.10
2023-04-07T20:10:54.419Z,2.47
2023-04-07T20:13:28.103Z,2.47
2023-04-07T20:15:55.518Z,2.73
2023-04-07T20:18:24.881Z,2.00
2023-04-07T20:21:06.152Z,2.47
2023-04-07T20:23:34.061Z,2.10
2023-04-07T20:26:07.249Z,2.23
2023-04-07T20:28:34.396Z,2.37
2023-04-07T20:31:03.789Z,2.30
2023-04-07T20:33:33.184Z,2.50
2023-04-07T20:36:03.500Z,2.80
2023-04-07T20:38:30.765Z,2.40
2023-04-07T20:41:04.859Z,2.67
2023-04-07T20:43:34.199Z,2.57
2023-04-07T20:46:03.933Z,3.00
2023-04-07T20:48:33.782Z,3.00
2023-04-07T20:51:05.931Z,3.07
2023-04-07T20:53:35.289Z,2.60
2023-04-07T20:56:03.078Z,2.77
2023-04-07T20:58:30.256Z,2.80
2023-04-07T21:01:01.603Z,2.70
2023-04-07T21:03:35.941Z,2.90
2023-04-07T21:06:06.002Z,2.80
2023-04-07T21:08:35.160Z,2.73
2023-04-07T21:11:04.766Z,2.60
2023-04-07T21:13:31.946Z,2.97
2023-04-07T21:16:03.753Z,3.30
2023-04-07T21:18:31.010Z,2.70
2023-04-07T21:21:02.174Z,2.93
2023-04-07T21:23:31.328Z,3.20
2023-04-07T21:26:03.257Z,3.47
2023-04-07T21:28:35.408Z,2.90
2023-04-07T21:31:03.822Z,3.50
2023-04-07T21:33:35.847Z,3.37
2023-04-07T21:36:06.463Z,2.83
2023-04-07T21:38:36.491Z,3.37
2023-04-07T21:41:06.147Z,3.13
2023-04-07T21:43:34.682Z,3.20
2023-04-07T21:46:01.838Z,3.03
2023-04-07T21:48:30.181Z,3.00
2023-04-07T21:50:59.557Z,3.00
2023-04-07T21:53:28.800Z,3.33
2023-04-07T21:55:58.054Z,3.23
2023-04-07T21:58:29.685Z,3.30
2023-04-07T22:01:00.042Z,3.10
2023-04-07T22:03:30.089Z,3.20
2023-04-07T22:06:01.171Z,3.23
2023-04-07T22:08:30.840Z,3.47
2023-04-07T22:11:02.733Z,3.47
2023-04-07T22:13:29.887Z,2.97
2023-04-07T22:16:02.134Z,2.93
2023-04-07T22:18:29.554Z,3.50
2023-04-07T22:20:56.722Z,3.50
2023-04-07T22:23:23.927Z,3.87
2023-04-07T22:25:51.212Z,4.10
2023-04-07T22:28:18.380Z,3.60
2023-04-07T22:30:47.981Z,3.70
2023-04-07T22:33:15.096Z,3.13
2023-04-07T22:35:42.274Z,4.00
2023-04-07T22:38:17.248Z,3.30
2023-04-07T22:40:49.433Z,4.10
2023-04-07T22:43:18.613Z,3.73
2023-04-07T22:45:48.302Z,3.87
2023-04-07T22:48:16.239Z,3.63
2023-04-07T22:50:45.697Z,4.10
2023-04-07T22:53:12.868Z,3.90
2023-04-07T22:55:40.823Z,3.83
2023-04-07T22:58:12.630Z,4.00
2023-04-07T23:00:39.886Z,4.30
2023-04-07T23:03:09.378Z,3.90
2023-04-07T23:05:37.040Z,4.30
2023-04-07T23:08:04.319Z,4.20
2023-04-07T23:10:32.321Z,4.43
2023-04-07T23:13:01.874Z,4.30
2023-04-07T23:15:31.119Z,4.43
2023-04-07T23:18:02.898Z,4.37
2023-04-07T23:20:33.592Z,4.20
2023-04-07T23:23:03.434Z,4.10
2023-04-07T23:25:35.597Z,4.17
2023-04-07T23:28:02.728Z,4.37
2023-04-07T23:30:32.121Z,4.67
2023-04-07T23:32:59.386Z,4.40
2023-04-07T23:35:26.642Z,5.10
2023-04-07T23:37:56.027Z,4.50
2023-04-07T23:40:27.755Z,4.63
2023-04-07T23:42:54.887Z,4.87
2023-04-07T23:45:24.592Z,5.30
2023-04-07T23:47:51.968Z,5.20
2023-04-07T23:50:23.880Z,5.57
2023-04-07T23:52:51.029Z,4.50
2023-04-07T23:55:20.632Z,4.97
2023-04-07T23:57:47.772Z,5.03
